Terminal Aerodrome Forecast
Issued by NWS

Home | Current Version | Previous Version | Text Only | Print | Product List | Glossary On
Versions: 1 2 3 4 5 6 7 8 9 10 11 12 13 14 15
000
FTUS43 KICT 242320
TAFRSL
TAF
KRSL 242320Z 2500/2524 31009KT P6SM SCT120
     FM250900 26007KT P6SM SCT250
     FM251700 22016G23KT P6SM BKN080=

USA.gov is the U.S. government's official web portal to all federal, state and local government web resources and services.